createdAt,value
2023-02-06T00:02:15.969Z,10.20
2023-02-06T00:04:43.222Z,10.50
2023-02-06T00:07:10.289Z,9.95
2023-02-06T00:09:37.365Z,9.05
2023-02-06T00:12:04.501Z,8.88
2023-02-06T00:14:31.562Z,8.20
2023-02-06T00:16:58.625Z,8.50
2023-02-06T00:19:25.733Z,9.02
2023-02-06T00:21:52.838Z,8.35
2023-02-06T00:24:19.918Z,8.55
2023-02-06T00:26:47.027Z,8.82
2023-02-06T00:29:14.191Z,8.40
2023-02-06T00:31:41.391Z,8.77
2023-02-06T00:34:08.549Z,9.13
2023-02-06T00:36:35.644Z,8.57
2023-02-06T00:39:02.715Z,8.95
2023-02-06T00:41:29.864Z,8.75
2023-02-06T00:43:56.936Z,8.90
2023-02-06T00:46:24.232Z,9.43
2023-02-06T00:48:51.349Z,8.85
2023-02-06T00:51:18.476Z,8.67
2023-02-06T00:53:45.558Z,8.10
2023-02-06T00:56:12.669Z,7.72
2023-02-06T00:58:39.825Z,9.32
2023-02-06T01:01:06.995Z,9.60
2023-02-06T01:03:34.507Z,8.50
2023-02-06T01:06:01.539Z,8.27
2023-02-06T01:08:28.784Z,8.80
2023-02-06T01:10:56.019Z,8.55
2023-02-06T01:13:23.132Z,8.25
2023-02-06T01:15:51.271Z,8.40
2023-02-06T01:18:18.712Z,7.78
2023-02-06T01:20:45.829Z,8.13
2023-02-06T01:23:12.953Z,7.90
2023-02-06T01:25:40.063Z,7.68
2023-02-06T01:28:07.184Z,7.85
2023-02-06T01:30:34.353Z,7.88
2023-02-06T01:33:01.541Z,8.50
2023-02-06T01:35:29.620Z,8.50
2023-02-06T01:37:56.714Z,8.40
2023-02-06T01:40:23.846Z,8.32
2023-02-06T01:42:50.980Z,8.27
2023-02-06T01:45:35.969Z,8.00
2023-02-06T01:48:05.822Z,8.45
2023-02-06T01:50:33.974Z,8.05
2023-02-06T01:53:01.660Z,9.02
2023-02-06T01:55:28.862Z,9.10
2023-02-06T01:57:56.016Z,9.45
2023-02-06T02:00:23.173Z,8.80
2023-02-06T02:02:50.861Z,8.98
2023-02-06T02:05:18.723Z,8.23
2023-02-06T02:07:49.474Z,8.27
2023-02-06T02:10:16.637Z,8.65
2023-02-06T02:12:43.762Z,9.77
2023-02-06T02:15:10.871Z,10.10
2023-02-06T02:17:37.941Z,9.52
2023-02-06T02:20:20.514Z,8.80
2023-02-06T02:22:55.410Z,7.93
2023-02-06T02:25:36.152Z,8.48
2023-02-06T02:28:23.415Z,7.72
2023-02-06T02:30:51.526Z,9.50
2023-02-06T02:33:38.576Z,9.63
2023-02-06T02:36:14.393Z,8.57
2023-02-06T02:38:42.558Z,10.30
2023-02-06T02:41:14.007Z,9.45
2023-02-06T02:43:44.479Z,9.57
2023-02-06T02:46:15.363Z,9.50
2023-02-06T02:48:42.384Z,8.90
2023-02-06T02:51:10.799Z,8.65
2023-02-06T02:53:37.964Z,7.97
2023-02-06T02:56:13.935Z,8.93
2023-02-06T02:58:41.075Z,10.90
2023-02-06T03:01:12.979Z,9.05
2023-02-06T03:03:44.583Z,8.98
2023-02-06T03:06:11.604Z,8.98
2023-02-06T03:08:58.623Z,9.25
2023-02-06T03:11:26.025Z,9.27
2023-02-06T03:14:13.092Z,10.77
2023-02-06T03:16:43.283Z,10.63
2023-02-06T03:19:19.839Z,10.48
2023-02-06T03:21:48.189Z,10.40
2023-02-06T03:24:17.641Z,9.40
2023-02-06T03:26:45.083Z,9.80
2023-02-06T03:29:13.478Z,8.50
2023-02-06T03:31:45.686Z,8.93
2023-02-06T03:34:19.316Z,9.13
2023-02-06T03:36:46.533Z,9.32
2023-02-06T03:39:13.670Z,9.43
2023-02-06T03:41:41.259Z,9.63
2023-02-06T03:44:10.307Z,11.02
2023-02-06T03:46:38.769Z,10.70
2023-02-06T03:49:07.961Z,9.75
2023-02-06T03:51:39.740Z,10.50
2023-02-06T03:54:07.593Z,10.40
2023-02-06T03:56:53.493Z,9.70
2023-02-06T03:59:20.887Z,9.80
2023-02-06T04:01:49.795Z,10.02
2023-02-06T04:04:17.802Z,11.15
2023-02-06T04:06:45.058Z,9.48
2023-02-06T04:09:12.356Z,9.70
2023-02-06T04:11:39.459Z,9.32
2023-02-06T04:14:06.532Z,9.13
2023-02-06T04:16:33.702Z,9.05
2023-02-06T04:19:00.839Z,9.30
2023-02-06T04:21:27.980Z,9.38
2023-02-06T04:23:55.098Z,9.45
2023-02-06T04:26:22.214Z,9.35
2023-02-06T04:28:49.330Z,9.82
2023-02-06T04:31:16.561Z,9.45
2023-02-06T04:33:43.613Z,9.65
2023-02-06T04:36:10.850Z,8.90
2023-02-06T04:38:37.922Z,8.80
2023-02-06T04:41:06.183Z,9.20
2023-02-06T04:43:33.761Z,9.15
2023-02-06T04:46:00.848Z,9.18
2023-02-06T04:48:27.971Z,7.90
2023-02-06T04:50:55.065Z,9.20
2023-02-06T04:53:22.172Z,9.00
2023-02-06T04:55:49.356Z,9.15
2023-02-06T04:58:16.484Z,9.02
2023-02-06T05:00:43.657Z,10.23
2023-02-06T05:03:10.719Z,10.82
2023-02-06T05:05:37.858Z,9.85
2023-02-06T05:08:05.009Z,10.88
2023-02-06T05:10:32.101Z,10.13
2023-02-06T05:12:59.223Z,10.73
2023-02-06T05:15:26.350Z,10.98
2023-02-06T05:17:53.475Z,10.20
2023-02-06T05:20:20.611Z,9.90
2023-02-06T05:22:47.330Z,10.02
2023-02-06T05:25:14.443Z,11.13
2023-02-06T05:27:41.553Z,12.30
2023-02-06T05:30:08.879Z,12.93
2023-02-06T05:32:35.604Z,12.88
2023-02-06T05:35:02.690Z,12.60
2023-02-06T05:37:29.785Z,14.55
2023-02-06T05:39:58.520Z,12.82
2023-02-06T05:42:26.722Z,12.18
2023-02-06T05:44:53.834Z,14.40
2023-02-06T05:47:20.905Z,13.98
2023-02-06T05:49:48.329Z,13.95
2023-02-06T05:52:15.998Z,12.93
2023-02-06T05:54:43.144Z,13.13
2023-02-06T05:57:10.453Z,16.17
2023-02-06T05:59:37.873Z,17.92
2023-02-06T06:02:05.022Z,16.10
2023-02-06T06:04:32.138Z,15.63
2023-02-06T06:06:59.224Z,15.25
2023-02-06T06:09:27.588Z,14.23
2023-02-06T06:11:54.707Z,13.02
2023-02-06T06:14:21.848Z,14.15
2023-02-06T06:16:48.911Z,13.10
2023-02-06T06:19:16.033Z,14.33
2023-02-06T06:21:43.096Z,14.23
2023-02-06T06:24:10.271Z,14.05
2023-02-06T06:26:37.345Z,15.15
2023-02-06T06:29:04.565Z,13.38
2023-02-06T06:31:31.803Z,13.95
2023-02-06T06:33:58.895Z,13.90
2023-02-06T06:36:25.986Z,14.07
2023-02-06T06:38:53.106Z,13.85
2023-02-06T06:41:20.155Z,14.50
2023-02-06T06:43:47.248Z,14.07
2023-02-06T06:46:14.323Z,14.90
2023-02-06T06:48:41.445Z,15.57
2023-02-06T06:51:08.564Z,14.85
2023-02-06T06:53:39.799Z,15.25
2023-02-06T06:56:07.730Z,15.85
2023-02-06T06:58:34.842Z,15.50
2023-02-06T07:01:02.003Z,15.20
2023-02-06T07:03:29.102Z,16.92
2023-02-06T07:05:56.221Z,16.15
2023-02-06T07:08:23.578Z,15.48
2023-02-06T07:10:50.721Z,16.00
2023-02-06T07:13:17.851Z,16.48
2023-02-06T07:15:44.926Z,16.67
2023-02-06T07:18:12.070Z,15.52
2023-02-06T07:20:39.238Z,16.23
2023-02-06T07:23:06.508Z,15.95
2023-02-06T07:25:34.276Z,16.52
2023-02-06T07:28:01.358Z,14.98
2023-02-06T07:30:28.622Z,16.60
2023-02-06T07:32:55.779Z,15.57
2023-02-06T07:35:22.920Z,16.63
2023-02-06T07:37:49.999Z,15.97
2023-02-06T07:40:17.102Z,15.90
2023-02-06T07:42:44.235Z,16.27
2023-02-06T07:45:11.417Z,16.70
2023-02-06T07:47:38.490Z,16.35
2023-02-06T07:50:05.750Z,16.70
2023-02-06T07:52:32.814Z,15.82
2023-02-06T07:54:59.907Z,14.85
2023-02-06T07:57:27.048Z,15.95
2023-02-06T07:59:54.346Z,16.42
2023-02-06T08:02:21.461Z,15.50
2023-02-06T08:04:48.530Z,15.63
2023-02-06T08:07:17.385Z,15.87
2023-02-06T08:09:44.585Z,16.13
2023-02-06T08:12:12.070Z,14.85
2023-02-06T08:14:39.278Z,16.90
2023-02-06T08:17:07.666Z,15.95
2023-02-06T08:19:34.889Z,17.25
2023-02-06T08:22:01.998Z,16.40
2023-02-06T08:24:29.252Z,16.47
2023-02-06T08:26:56.375Z,16.23
2023-02-06T08:29:25.202Z,15.73
2023-02-06T08:31:52.492Z,16.40
2023-02-06T08:34:19.629Z,16.33
2023-02-06T08:36:46.958Z,15.35
2023-02-06T08:39:14.929Z,15.93
2023-02-06T08:41:43.421Z,15.50
2023-02-06T08:44:13.277Z,15.83
2023-02-06T08:46:40.884Z,15.25
2023-02-06T08:49:09.329Z,15.40
2023-02-06T08:51:36.801Z,15.45
2023-02-06T08:54:05.161Z,15.60
2023-02-06T08:56:33.020Z,15.60
2023-02-06T08:59:00.583Z,15.95
2023-02-06T09:01:28.585Z,15.90
2023-02-06T09:03:56.555Z,16.63
2023-02-06T09:06:25.463Z,16.02
2023-02-06T09:08:53.218Z,17.17
2023-02-06T09:11:21.470Z,15.63
2023-02-06T09:13:49.538Z,15.63
2023-02-06T09:16:18.181Z,15.35
2023-02-06T09:18:45.710Z,15.90
2023-02-06T09:21:14.165Z,15.15
2023-02-06T09:23:43.671Z,14.68
2023-02-06T09:26:11.758Z,14.40
2023-02-06T09:28:39.047Z,15.25
2023-02-06T09:31:08.048Z,15.02
2023-02-06T09:33:35.488Z,14.97
2023-02-06T09:36:05.412Z,14.23
2023-02-06T09:38:32.512Z,14.95
2023-02-06T09:41:01.359Z,14.30
2023-02-06T09:43:29.890Z,14.23
2023-02-06T09:46:00.084Z,13.82
2023-02-06T09:48:29.290Z,14.40
2023-02-06T09:51:03.014Z,14.38
2023-02-06T09:53:49.976Z,14.20
2023-02-06T09:56:32.807Z,13.80
2023-02-06T09:59:19.798Z,14.60
2023-02-06T10:02:01.414Z,13.77
2023-02-06T10:04:41.182Z,13.55
2023-02-06T10:07:16.923Z,13.40
2023-02-06T10:09:47.978Z,12.47
2023-02-06T10:12:18.610Z,13.93
2023-02-06T10:14:45.698Z,13.95
2023-02-06T10:17:12.801Z,12.75
2023-02-06T10:19:44.031Z,12.85
2023-02-06T10:22:16.158Z,11.02
2023-02-06T10:24:47.599Z,12.07
2023-02-06T10:27:15.586Z,12.27
2023-02-06T10:29:43.736Z,12.55
2023-02-06T10:32:30.780Z,12.15
2023-02-06T10:35:03.935Z,12.18
2023-02-06T10:37:54.003Z,11.90
2023-02-06T10:40:41.043Z,12.60
2023-02-06T10:43:28.028Z,12.35
2023-02-06T10:45:56.166Z,12.00
2023-02-06T10:48:34.056Z,12.27
2023-02-06T10:51:08.250Z,12.75
2023-02-06T10:53:39.235Z,12.55
2023-02-06T10:56:10.357Z,12.20
2023-02-06T10:58:41.858Z,11.57
2023-02-06T11:01:24.647Z,11.43
2023-02-06T11:04:03.155Z,10.40
2023-02-06T11:06:30.861Z,10.52
2023-02-06T11:08:58.072Z,10.98
2023-02-06T11:11:26.970Z,11.25
2023-02-06T11:13:56.248Z,11.25
2023-02-06T11:16:25.592Z,10.98
2023-02-06T11:18:53.435Z,10.93
2023-02-06T11:21:40.425Z,10.35
2023-02-06T11:24:11.973Z,10.10
2023-02-06T11:26:41.549Z,10.52
2023-02-06T11:29:14.553Z,11.48
2023-02-06T11:31:45.685Z,11.55
2023-02-06T11:34:30.753Z,11.63
2023-02-06T11:36:59.709Z,7.82
2023-02-06T11:39:35.524Z,7.75
2023-02-06T11:42:04.526Z,7.68
2023-02-06T11:44:40.212Z,7.68
2023-02-06T11:47:27.204Z,8.68
2023-02-06T11:49:54.391Z,8.67
2023-02-06T11:52:31.852Z,8.70
2023-02-06T11:55:02.322Z,9.25
2023-02-06T11:57:32.349Z,8.60
2023-02-06T12:00:02.087Z,7.47
2023-02-06T12:02:29.356Z,6.77
2023-02-06T12:05:00.457Z,6.93
2023-02-06T12:07:30.462Z,7.25
2023-02-06T12:09:57.568Z,7.20
2023-02-06T12:12:29.013Z,6.80
2023-02-06T12:14:58.268Z,7.57
2023-02-06T12:17:34.713Z,7.60
2023-02-06T12:20:15.750Z,8.30
2023-02-06T12:22:46.610Z,9.20
2023-02-06T12:25:23.345Z,9.05
2023-02-06T12:27:51.229Z,8.65
2023-02-06T12:30:21.583Z,8.10
2023-02-06T12:32:51.422Z,8.88
2023-02-06T12:35:22.467Z,8.40
2023-02-06T12:37:53.695Z,8.63
2023-02-06T12:40:20.840Z,8.20
2023-02-06T12:42:53.736Z,7.78
2023-02-06T12:45:40.833Z,7.60
2023-02-06T12:48:33.063Z,9.07
2023-02-06T12:51:20.170Z,7.90
2023-02-06T12:53:51.465Z,7.23
2023-02-06T12:56:22.853Z,7.03
2023-02-06T12:59:09.878Z,7.13
2023-02-06T13:01:56.973Z,7.03
2023-02-06T13:04:25.785Z,6.93
2023-02-06T13:06:56.264Z,6.80
2023-02-06T13:09:26.954Z,7.93
2023-02-06T13:11:54.505Z,8.02
2023-02-06T13:14:23.541Z,8.33
2023-02-06T13:17:00.102Z,8.43
2023-02-06T13:19:27.227Z,8.40
2023-02-06T13:22:16.624Z,8.20
2023-02-06T13:24:44.897Z,8.15
2023-02-06T13:27:13.452Z,9.02
2023-02-06T13:29:41.624Z,8.63
2023-02-06T13:32:12.109Z,7.80
2023-02-06T13:34:43.414Z,7.32
2023-02-06T13:37:30.373Z,7.25
2023-02-06T13:40:17.634Z,7.25
2023-02-06T13:42:49.896Z,7.30
2023-02-06T13:45:20.578Z,7.28
2023-02-06T13:48:07.596Z,7.05
2023-02-06T13:50:44.657Z,6.30
2023-02-06T13:53:31.653Z,6.95
2023-02-06T13:56:06.288Z,7.47
2023-02-06T13:58:39.120Z,6.40
2023-02-06T14:01:12.450Z,6.72
2023-02-06T14:03:43.558Z,6.53
2023-02-06T14:06:10.610Z,5.97
2023-02-06T14:08:47.220Z,6.32
2023-02-06T14:11:21.612Z,6.32
2023-02-06T14:13:55.821Z,5.67
2023-02-06T14:16:42.829Z,6.05
2023-02-06T14:19:18.509Z,6.35
2023-02-06T14:21:52.042Z,6.20
2023-02-06T14:24:23.070Z,5.63
2023-02-06T14:27:10.038Z,6.28
2023-02-06T14:29:37.198Z,6.00
2023-02-06T14:32:07.577Z,5.90
2023-02-06T14:34:42.500Z,6.55
2023-02-06T14:37:12.782Z,6.25
2023-02-06T14:39:56.623Z,6.45
2023-02-06T14:42:23.720Z,6.15
2023-02-06T14:44:54.951Z,6.43
2023-02-06T14:47:25.188Z,6.20
2023-02-06T14:49:53.220Z,6.25
2023-02-06T14:52:22.660Z,6.35
2023-02-06T14:54:49.709Z,5.78
2023-02-06T14:57:19.583Z,6.00
2023-02-06T15:00:06.641Z,6.27
2023-02-06T15:02:34.959Z,6.23
2023-02-06T15:05:02.545Z,6.28
2023-02-06T15:07:32.057Z,5.85
2023-02-06T15:10:02.285Z,6.80
2023-02-06T15:12:30.131Z,6.30
2023-02-06T15:15:02.527Z,6.25
2023-02-06T15:17:30.051Z,6.50
2023-02-06T15:19:57.215Z,6.40
2023-02-06T15:22:31.679Z,6.22
2023-02-06T15:24:59.800Z,6.13
2023-02-06T15:27:28.775Z,5.80
2023-02-06T15:29:56.021Z,6.75
2023-02-06T15:32:26.338Z,6.07
2023-02-06T15:34:53.483Z,7.10
2023-02-06T15:37:23.401Z,6.40
2023-02-06T15:39:50.655Z,6.47
2023-02-06T15:42:18.487Z,7.10
2023-02-06T15:44:46.050Z,7.45
2023-02-06T15:47:14.240Z,6.80
2023-02-06T15:49:43.370Z,6.88
2023-02-06T15:52:11.248Z,7.30
2023-02-06T15:54:41.049Z,7.90
2023-02-06T15:57:18.791Z,7.15
2023-02-06T15:59:46.180Z,7.90
2023-02-06T16:02:33.260Z,9.95
2023-02-06T16:05:01.994Z,7.70
2023-02-06T16:07:31.918Z,8.93
2023-02-06T16:10:04.200Z,8.23
2023-02-06T16:12:40.035Z,7.00
2023-02-06T16:15:27.168Z,7.50
2023-02-06T16:17:54.913Z,7.80
2023-02-06T16:20:27.573Z,8.63
2023-02-06T16:22:57.175Z,8.40
2023-02-06T16:25:29.678Z,8.32
2023-02-06T16:27:57.209Z,7.67
2023-02-06T16:30:28.332Z,7.82
2023-02-06T16:32:56.810Z,8.30
2023-02-06T16:35:24.642Z,7.70
2023-02-06T16:37:53.066Z,7.65
2023-02-06T16:40:20.628Z,7.70
2023-02-06T16:42:47.821Z,7.93
2023-02-06T16:45:18.270Z,7.45
2023-02-06T16:47:45.692Z,7.25
2023-02-06T16:50:12.887Z,8.60
2023-02-06T16:52:41.550Z,7.70
2023-02-06T16:55:15.258Z,7.75
2023-02-06T16:57:44.877Z,7.45
2023-02-06T17:00:17.178Z,7.22
2023-02-06T17:02:44.888Z,6.72
2023-02-06T17:05:12.144Z,6.88
2023-02-06T17:07:39.280Z,6.80
2023-02-06T17:10:07.057Z,6.95
2023-02-06T17:12:34.356Z,7.72
2023-02-06T17:15:01.443Z,6.57
2023-02-06T17:17:28.590Z,7.03
2023-02-06T17:19:55.867Z,7.20
2023-02-06T17:22:23.051Z,6.65
2023-02-06T17:24:50.247Z,9.50
2023-02-06T17:27:19.349Z,7.13
2023-02-06T17:29:47.722Z,7.28
2023-02-06T17:32:21.906Z,7.47
2023-02-06T17:34:49.887Z,7.00
2023-02-06T17:37:20.859Z,7.53
2023-02-06T17:39:48.893Z,7.10
2023-02-06T17:42:16.316Z,7.05
2023-02-06T17:44:43.774Z,6.85
2023-02-06T17:47:11.134Z,6.75
2023-02-06T17:49:38.395Z,7.00
2023-02-06T17:52:05.768Z,6.57
2023-02-06T17:54:33.284Z,7.07
2023-02-06T17:57:00.337Z,6.57
2023-02-06T17:59:27.487Z,7.45
2023-02-06T18:01:54.853Z,7.80
2023-02-06T18:04:22.932Z,7.55
2023-02-06T18:06:50.048Z,7.82
2023-02-06T18:09:17.312Z,9.10
2023-02-06T18:11:44.551Z,6.87
2023-02-06T18:14:12.047Z,7.60
2023-02-06T18:16:42.718Z,7.05
2023-02-06T18:19:10.808Z,6.50
2023-02-06T18:21:37.933Z,5.80
2023-02-06T18:24:05.808Z,6.93
2023-02-06T18:26:33.133Z,7.82
2023-02-06T18:29:03.329Z,6.80
2023-02-06T18:31:33.200Z,5.68
2023-02-06T18:34:00.565Z,7.00
2023-02-06T18:36:27.948Z,5.80
2023-02-06T18:38:55.739Z,6.43
2023-02-06T18:41:42.722Z,5.97
2023-02-06T18:44:10.440Z,6.23
2023-02-06T18:46:38.068Z,6.38
2023-02-06T18:49:06.038Z,5.85
2023-02-06T18:51:33.188Z,6.33
2023-02-06T18:54:00.376Z,7.53
2023-02-06T18:56:27.591Z,6.47
2023-02-06T18:58:54.684Z,6.68
2023-02-06T19:01:23.267Z,6.90
2023-02-06T19:03:51.414Z,6.93
2023-02-06T19:06:20.000Z,7.93
2023-02-06T19:08:47.156Z,8.20
2023-02-06T19:11:14.420Z,8.35
2023-02-06T19:13:41.480Z,6.95
2023-02-06T19:16:12.205Z,6.80
2023-02-06T19:18:42.162Z,6.67
2023-02-06T19:21:11.692Z,6.67
2023-02-06T19:23:39.793Z,7.55
2023-02-06T19:26:07.827Z,6.95
2023-02-06T19:28:36.584Z,7.90
2023-02-06T19:31:03.996Z,6.53
2023-02-06T19:33:31.910Z,5.85
2023-02-06T19:35:59.244Z,6.63
2023-02-06T19:38:26.909Z,6.40
2023-02-06T19:40:54.099Z,5.93
2023-02-06T19:43:21.243Z,6.00
2023-02-06T19:45:48.556Z,4.82
2023-02-06T19:48:15.705Z,5.20
2023-02-06T19:50:43.077Z,5.10
2023-02-06T19:53:11.562Z,5.40
2023-02-06T19:55:48.738Z,5.13
2023-02-06T19:58:15.848Z,5.00
2023-02-06T20:00:43.076Z,5.30
2023-02-06T20:03:10.318Z,6.07
2023-02-06T20:05:37.475Z,6.10
2023-02-06T20:08:04.729Z,4.90
2023-02-06T20:10:31.855Z,5.00
2023-02-06T20:13:00.759Z,5.20
2023-02-06T20:15:29.325Z,4.57
2023-02-06T20:17:56.482Z,5.00
2023-02-06T20:20:23.344Z,4.70
2023-02-06T20:22:50.582Z,5.15
2023-02-06T20:25:17.867Z,4.97
2023-02-06T20:27:44.981Z,4.80
2023-02-06T20:30:12.440Z,4.23
2023-02-06T20:32:39.617Z,4.80
2023-02-06T20:35:06.951Z,4.45
2023-02-06T20:37:34.050Z,4.07
2023-02-06T20:40:01.170Z,4.22
2023-02-06T20:42:28.785Z,4.43
2023-02-06T20:44:56.035Z,4.00
2023-02-06T20:47:23.154Z,5.13
2023-02-06T20:49:50.290Z,3.90
2023-02-06T20:52:19.101Z,4.20
2023-02-06T20:54:46.287Z,4.15
2023-02-06T20:57:15.357Z,4.25
2023-02-06T20:59:42.456Z,3.78
2023-02-06T21:02:11.489Z,3.83
2023-02-06T21:04:38.591Z,4.35
2023-02-06T21:07:05.712Z,4.22
2023-02-06T21:09:32.934Z,4.75
2023-02-06T21:12:00.419Z,4.43
2023-02-06T21:14:29.868Z,4.53
2023-02-06T21:16:57.322Z,4.80
2023-02-06T21:19:26.686Z,4.30
2023-02-06T21:21:53.840Z,4.70
2023-02-06T21:24:20.978Z,4.53
2023-02-06T21:26:48.122Z,4.70
2023-02-06T21:29:15.686Z,5.40
2023-02-06T21:31:43.965Z,6.13
2023-02-06T21:34:15.861Z,5.95
2023-02-06T21:36:43.394Z,6.33
2023-02-06T21:39:11.931Z,6.43
2023-02-06T21:41:39.171Z,6.13
2023-02-06T21:44:06.381Z,6.03
2023-02-06T21:46:34.448Z,6.50
2023-02-06T21:49:01.614Z,6.00
2023-02-06T21:51:28.802Z,6.15
2023-02-06T21:53:56.882Z,5.95
2023-02-06T21:56:25.631Z,6.40
2023-02-06T21:58:53.034Z,6.50
2023-02-06T22:01:23.081Z,6.97
2023-02-06T22:03:50.389Z,7.90
2023-02-06T22:06:19.761Z,8.00
2023-02-06T22:08:48.337Z,10.88
2023-02-06T22:11:16.340Z,9.70
2023-02-06T22:13:44.194Z,8.50
2023-02-06T22:16:12.480Z,7.82
2023-02-06T22:18:39.970Z,8.37
2023-02-06T22:21:08.499Z,7.97
2023-02-06T22:23:36.056Z,7.67
2023-02-06T22:26:03.871Z,8.07
2023-02-06T22:28:32.123Z,9.10
2023-02-06T22:31:08.680Z,8.77
2023-02-06T22:33:35.845Z,8.70
2023-02-06T22:36:05.232Z,8.23
2023-02-06T22:38:32.548Z,8.60
2023-02-06T22:41:01.578Z,9.23
2023-02-06T22:43:29.623Z,9.00
2023-02-06T22:45:56.862Z,9.07
2023-02-06T22:48:24.086Z,9.77
2023-02-06T22:50:53.276Z,9.70
2023-02-06T22:53:29.244Z,9.63
2023-02-06T22:56:17.549Z,9.95
2023-02-06T22:58:44.926Z,10.07
2023-02-06T23:01:12.633Z,9.53
2023-02-06T23:03:39.791Z,9.93
2023-02-06T23:06:07.992Z,9.13
2023-02-06T23:08:36.812Z,10.07
2023-02-06T23:11:05.075Z,9.60
2023-02-06T23:13:32.180Z,10.05
2023-02-06T23:15:59.461Z,9.90
2023-02-06T23:18:27.369Z,10.02
2023-02-06T23:20:55.563Z,10.30
2023-02-06T23:23:22.788Z,10.23
2023-02-06T23:25:50.036Z,10.43
2023-02-06T23:28:17.232Z,10.13
2023-02-06T23:30:44.385Z,10.35
2023-02-06T23:33:11.496Z,9.90
2023-02-06T23:35:39.914Z,9.68
2023-02-06T23:38:07.698Z,9.40
2023-02-06T23:40:35.368Z,10.00
2023-02-06T23:43:02.977Z,9.90
2023-02-06T23:45:30.617Z,10.35
2023-02-06T23:47:58.106Z,10.57
2023-02-06T23:50:25.523Z,10.30
2023-02-06T23:52:52.850Z,10.48
2023-02-06T23:55:20.161Z,11.52
2023-02-06T23:57:47.339Z,10.68
